createdAt,value
2023-01-12T00:02:18.628Z,89.67
2023-01-12T00:07:18.467Z,89.56
2023-01-12T00:12:18.401Z,88.84
2023-01-12T00:17:18.709Z,88.64
2023-01-12T00:22:18.182Z,89.09
2023-01-12T00:27:18.187Z,89.09
2023-01-12T00:32:18.077Z,89.19
2023-01-12T00:37:18.027Z,89.29
2023-01-12T00:42:17.929Z,89.44
2023-01-12T00:47:17.905Z,89.95
2023-01-12T00:52:29.402Z,91.24
2023-01-12T00:57:18.750Z,89.50
2023-01-12T01:02:17.884Z,89.19
2023-01-12T01:07:17.618Z,87.44
2023-01-12T01:12:17.812Z,86.88
2023-01-12T01:17:17.551Z,86.36
2023-01-12T01:22:17.392Z,86.36
2023-01-12T01:27:17.439Z,85.85
2023-01-12T01:32:17.297Z,85.85
2023-01-12T01:37:17.226Z,84.92
2023-01-12T01:42:17.214Z,84.20
2023-01-12T01:47:17.091Z,84.67
2023-01-12T01:52:17.101Z,84.27
2023-01-12T01:57:16.985Z,83.47
2023-01-12T02:02:16.935Z,82.93
2023-01-12T02:07:16.849Z,79.81
2023-01-12T02:12:16.776Z,81.87
2023-01-12T02:17:16.859Z,78.54
2023-01-12T02:22:16.662Z,78.64
2023-01-12T02:27:16.615Z,78.75
2023-01-12T02:32:16.548Z,79.88
2023-01-12T02:37:16.419Z,81.15
2023-01-12T02:42:16.366Z,78.51
2023-01-12T02:47:16.332Z,79.27
2023-01-12T02:52:16.246Z,80.33
2023-01-12T02:57:16.207Z,81.16
2023-01-12T03:02:16.141Z,80.95
2023-01-12T03:07:16.036Z,81.37
2023-01-12T03:12:15.967Z,79.93
2023-01-12T03:17:15.947Z,82.84
2023-01-12T03:22:15.884Z,81.30
2023-01-12T03:27:15.753Z,81.51
2023-01-12T03:32:15.712Z,80.99
2023-01-12T03:37:15.677Z,80.27
2023-01-12T03:42:15.557Z,80.06
2023-01-12T03:47:15.519Z,80.47
2023-01-12T03:52:22.437Z,80.58
2023-01-12T03:57:15.389Z,80.58
2023-01-12T04:02:15.324Z,81.81
2023-01-12T04:07:15.253Z,79.82
2023-01-12T04:12:15.202Z,79.16
2023-01-12T04:17:15.128Z,79.37
2023-01-12T04:22:15.053Z,79.82
2023-01-12T04:27:14.988Z,80.47
2023-01-12T04:32:14.959Z,81.75
2023-01-12T04:37:14.891Z,80.82
2023-01-12T04:42:14.801Z,80.62
2023-01-12T04:47:14.725Z,81.13
2023-01-12T04:52:14.680Z,81.34
2023-01-12T04:57:14.582Z,81.13
2023-01-12T05:02:14.629Z,81.92
2023-01-12T05:07:14.481Z,81.16
2023-01-12T05:12:14.412Z,81.33
2023-01-12T05:17:14.342Z,81.39
2023-01-12T05:22:14.296Z,78.30
2023-01-12T05:27:14.209Z,84.01
2023-01-12T05:32:14.155Z,77.48
2023-01-12T05:37:14.085Z,78.53
2023-01-12T05:42:14.013Z,79.29
2023-01-12T05:47:14.057Z,76.31
2023-01-12T05:52:13.909Z,77.20
2023-01-12T05:57:13.831Z,76.17
2023-01-12T06:02:13.809Z,77.10
2023-01-12T06:07:13.682Z,75.80
2023-01-12T06:12:13.598Z,77.37
2023-01-12T06:17:13.548Z,78.64
2023-01-12T06:22:13.482Z,79.36
2023-01-12T06:27:13.430Z,78.81
2023-01-12T06:32:13.355Z,76.97
2023-01-12T06:37:13.294Z,77.62
2023-01-12T06:42:13.237Z,78.30
2023-01-12T06:47:13.175Z,77.78
2023-01-12T06:52:13.090Z,78.09
2023-01-12T06:57:13.037Z,77.92
2023-01-12T07:02:13.014Z,79.57
2023-01-12T07:07:12.917Z,78.99
2023-01-12T07:12:12.867Z,79.09
2023-01-12T07:17:12.825Z,78.58
2023-01-12T07:22:12.707Z,79.30
2023-01-12T07:27:12.675Z,80.33
2023-01-12T07:32:12.606Z,80.60
2023-01-12T07:37:12.546Z,78.58
2023-01-12T07:42:12.449Z,78.64
2023-01-12T07:47:12.369Z,79.36
2023-01-12T07:52:12.341Z,78.12
2023-01-12T07:57:12.234Z,77.26
2023-01-12T08:02:12.208Z,77.26
2023-01-12T08:07:12.107Z,76.88
2023-01-12T08:12:12.040Z,72.86
2023-01-12T08:17:11.978Z,73.68
2023-01-12T08:22:11.905Z,76.09
2023-01-12T08:27:11.854Z,71.36
2023-01-12T08:32:11.805Z,72.38
2023-01-12T08:37:11.698Z,73.68
2023-01-12T08:42:11.665Z,72.75
2023-01-12T08:47:11.610Z,69.96
2023-01-12T08:52:11.779Z,69.45
2023-01-12T08:57:11.481Z,69.96
2023-01-12T09:02:11.669Z,68.84
2023-01-12T09:07:11.353Z,69.32
2023-01-12T09:12:11.259Z,68.74
2023-01-12T09:17:11.182Z,69.21
2023-01-12T09:22:11.111Z,69.90
2023-01-12T09:27:11.030Z,69.69
2023-01-12T09:32:10.993Z,68.77
2023-01-12T09:37:10.902Z,68.88
2023-01-12T09:42:10.841Z,68.57
2023-01-12T09:47:10.808Z,67.65
2023-01-12T09:52:10.763Z,71.33
2023-01-12T09:57:12.812Z,67.01
2023-01-12T10:02:10.741Z,68.91
2023-01-12T10:07:10.542Z,66.42
2023-01-12T10:12:10.441Z,67.52
2023-01-12T10:17:10.419Z,65.68
2023-01-12T10:22:10.367Z,66.27
2023-01-12T10:27:10.580Z,67.59
2023-01-12T10:32:10.201Z,65.25
2023-01-12T10:37:10.128Z,66.91
2023-01-12T10:42:10.023Z,68.64
2023-01-12T10:47:16.967Z,67.29
2023-01-12T10:52:09.901Z,65.86
2023-01-12T10:57:09.858Z,66.39
2023-01-12T11:02:10.009Z,65.28
2023-01-12T11:07:09.712Z,67.62
2023-01-12T11:12:09.638Z,66.97
2023-01-12T11:17:09.584Z,67.52
2023-01-12T11:22:09.543Z,68.13
2023-01-12T11:27:09.457Z,67.90
2023-01-12T11:32:09.391Z,67.38
2023-01-12T11:37:09.308Z,66.97
2023-01-12T11:42:09.282Z,67.21
2023-01-12T11:47:09.229Z,70.48
2023-01-12T11:52:09.137Z,71.70
2023-01-12T11:57:09.057Z,72.34
2023-01-12T12:02:09.083Z,74.49
2023-01-12T12:07:13.012Z,73.47
2023-01-12T12:12:08.901Z,73.36
2023-01-12T12:17:08.839Z,72.48
2023-01-12T12:22:08.769Z,75.27
2023-01-12T12:27:08.713Z,77.01
2023-01-12T12:32:08.611Z,76.53
2023-01-12T12:37:08.554Z,79.13
2023-01-12T12:42:09.183Z,79.16
2023-01-12T12:47:08.430Z,79.47
2023-01-12T12:52:08.338Z,81.41
2023-01-12T12:57:08.288Z,81.62
2023-01-12T13:02:08.233Z,82.89
2023-01-12T13:07:08.150Z,83.56
2023-01-12T13:12:08.845Z,82.34
2023-01-12T13:17:08.021Z,82.95
2023-01-12T13:22:08.749Z,83.15
2023-01-12T13:27:08.472Z,81.72
2023-01-12T13:32:07.827Z,82.68
2023-01-12T13:37:07.739Z,84.77
2023-01-12T13:42:08.954Z,84.80
2023-01-12T13:47:07.610Z,86.28
2023-01-12T13:52:07.612Z,86.14
2023-01-12T13:57:07.459Z,83.64
2023-01-12T14:02:07.537Z,85.11
2023-01-12T14:07:07.347Z,85.22
2023-01-12T14:12:07.266Z,85.63
2023-01-12T14:17:07.202Z,85.93
2023-01-12T14:22:07.144Z,86.55
2023-01-12T14:27:07.073Z,85.15
2023-01-12T14:32:07.007Z,87.65
2023-01-12T14:37:06.934Z,89.50
2023-01-12T14:42:06.893Z,89.95
2023-01-12T14:47:06.943Z,90.26
2023-01-12T14:52:06.722Z,90.16
2023-01-12T14:57:06.703Z,90.16
2023-01-12T15:02:06.608Z,90.77
2023-01-12T15:07:06.536Z,90.97
2023-01-12T15:12:06.557Z,91.49
2023-01-12T15:17:06.399Z,91.74
2023-01-12T15:22:06.346Z,92.04
2023-01-12T15:27:06.926Z,91.84
2023-01-12T15:32:06.256Z,89.64
2023-01-12T15:37:06.165Z,90.09
2023-01-12T15:42:06.085Z,90.16
2023-01-12T15:47:06.050Z,89.84
2023-01-12T15:52:09.884Z,90.20
2023-01-12T15:57:05.884Z,92.61
2023-01-12T16:02:05.995Z,89.89
2023-01-12T16:07:05.771Z,90.09
2023-01-12T16:12:05.700Z,89.33
2023-01-12T16:17:05.664Z,89.84
2023-01-12T16:22:05.549Z,88.51
2023-01-12T16:27:05.484Z,88.57
2023-01-12T16:32:05.468Z,86.73
2023-01-12T16:37:05.354Z,86.79
2023-01-12T16:42:05.328Z,86.69
2023-01-12T16:47:05.226Z,86.30
2023-01-12T16:52:05.150Z,85.07
2023-01-12T16:57:05.087Z,84.77
2023-01-12T17:02:05.141Z,85.38
2023-01-12T17:07:04.946Z,84.25
2023-01-12T17:12:04.888Z,83.70
2023-01-12T17:17:05.567Z,82.54
2023-01-12T17:22:04.777Z,81.41
2023-01-12T17:27:04.665Z,81.62
2023-01-12T17:32:06.887Z,82.03
2023-01-12T17:37:04.573Z,81.68
2023-01-12T17:42:04.544Z,81.17
2023-01-12T17:47:04.437Z,81.27
2023-01-12T17:52:04.347Z,81.88
2023-01-12T17:57:04.275Z,81.82
2023-01-12T18:02:11.262Z,82.70
2023-01-12T18:07:04.129Z,80.15
2023-01-12T18:12:04.080Z,80.87
2023-01-12T18:17:04.012Z,82.40
2023-01-12T18:22:03.974Z,81.17
2023-01-12T18:27:03.899Z,79.25
2023-01-12T18:32:03.837Z,79.72
2023-01-12T18:37:03.830Z,76.79
2023-01-12T18:42:03.733Z,76.18
2023-01-12T18:47:03.694Z,76.53
2023-01-12T18:52:03.596Z,76.86
2023-01-12T18:57:03.554Z,74.69
2023-01-12T19:02:03.564Z,74.32
2023-01-12T19:07:03.583Z,76.97
2023-01-12T19:12:04.600Z,75.60
2023-01-12T19:17:03.247Z,77.11
2023-01-12T19:22:03.211Z,78.16
2023-01-12T19:27:03.774Z,79.96
2023-01-12T19:32:03.044Z,77.89
2023-01-12T19:37:03.202Z,78.80
2023-01-12T19:42:02.983Z,74.69
2023-01-12T19:47:02.830Z,78.30
2023-01-12T19:52:02.797Z,75.68
2023-01-12T19:57:02.707Z,76.53
2023-01-12T20:02:02.734Z,77.25
2023-01-12T20:07:02.588Z,77.38
2023-01-12T20:12:02.502Z,77.14
2023-01-12T20:17:02.467Z,77.38
2023-01-12T20:22:02.432Z,80.07
2023-01-12T20:27:02.383Z,78.85
2023-01-12T20:32:02.347Z,78.71
2023-01-12T20:37:02.174Z,79.66
2023-01-12T20:42:02.132Z,79.16
2023-01-12T20:47:02.694Z,78.64
2023-01-12T20:52:01.986Z,77.89
2023-01-12T20:57:01.906Z,76.77
2023-01-12T21:02:02.027Z,76.56
2023-01-12T21:07:01.797Z,77.38
2023-01-12T21:12:01.713Z,76.06
2023-01-12T21:17:01.817Z,75.65
2023-01-12T21:22:01.630Z,75.61
2023-01-12T21:27:01.602Z,75.24
2023-01-12T21:32:01.533Z,75.75
2023-01-12T21:37:01.438Z,76.02
2023-01-12T21:42:01.366Z,75.20
2023-01-12T21:47:01.253Z,74.69
2023-01-12T21:52:01.198Z,75.51
2023-01-12T21:57:01.669Z,76.39
2023-01-12T22:02:01.273Z,73.94
2023-01-12T22:07:01.059Z,74.08
2023-01-12T22:12:00.993Z,73.88
2023-01-12T22:17:00.854Z,73.54
2023-01-12T22:22:00.854Z,73.33
2023-01-12T22:27:00.771Z,74.96
2023-01-12T22:32:00.770Z,73.57
2023-01-12T22:37:00.697Z,72.96
2023-01-12T22:42:00.529Z,73.43
2023-01-12T22:47:00.493Z,74.76
2023-01-12T22:52:00.388Z,73.33
2023-01-12T22:57:00.321Z,72.48
2023-01-12T23:02:00.544Z,73.13
2023-01-12T23:07:00.309Z,74.49
2023-01-12T23:12:00.262Z,75.27
2023-01-12T23:17:00.167Z,74.86
2023-01-12T23:22:00.145Z,74.38
2023-01-12T23:27:00.117Z,73.54
2023-01-12T23:32:00.003Z,74.76
2023-01-12T23:36:59.981Z,73.84
2023-01-12T23:41:59.845Z,74.08
2023-01-12T23:46:59.756Z,74.59
2023-01-12T23:51:59.719Z,74.96
2023-01-12T23:56:59.679Z,73.94
